arxmliv
arxmliv build tool
 
KWARC group
LaTeXML
About
   
 

Detailed info

Back to Homepage

List of missing_macros

No. Date Filename num_warningnum_errornum_xmargok_xmargnum_xmathok_xmathMissing macros
159201 2013-02-27 03:16:11 /0012/hep-lat.0012012 1120000[{sideways}].
159202 2013-02-27 03:15:30 /0012/hep-ex.0012062 1620000[\epsfig]; 1 missing file[ws.sty].
159203 2013-02-27 03:15:26 /0012/hep-ex.0012063 910000[\theappendix].
159204 2013-02-27 03:15:20 /0012/hep-lat.0012001 210000[\psfrag].
159205 2013-02-27 03:14:31 /0012/hep-ex.0012018 9180000[{sideways}].
159206 2013-02-27 03:14:27 /0012/hep-lat.0012004 9100000[\ArrowArc, \Line, \Photon, \ArrowLine, \Text, \Vertex, \LongArrow, \CArc, \PhotonArc, \DashLine].
159207 2013-02-27 03:14:03 /0012/hep-ex.0012056 1950000[\psfig]; 1 missing file[ws.sty].
159208 2013-02-27 03:13:59 /0012/hep-ex.0012042 1610000[\smaller].
159209 2013-02-27 03:13:22 /0012/hep-ex.0012041 510000[\epsfig].
159210 2013-02-27 03:12:51 /0012/hep-ex.0012045 120000[{sidewaystable}].
159211 2013-02-27 03:12:19 /0012/hep-ex.0012032 410000[\theappendix].
159212 2013-02-27 03:12:05 /0012/hep-ex.0012037 2130000[\smaller].
159213 2013-02-27 03:11:57 /0012/hep-ex.0012036 0260000[\Pep, \NIMA, \PLB, \Pem, \NPB, \coll, \MeV, \includegraphics, \CPC, \journal, \abstracts, \GeV, \etal]; 1 missing file[ws.sty].
159214 2013-02-27 03:11:52 /0012/hep-ex.0012019 4610000[\SMHZtobbmm, \nnbar, \preprint, \ZZ, \epemtoqqg, \Lep, \qqbar, \WW, {mcbibliography}, \tautau, \pb, \SMHZtottqq, \epemtoWW, \Z, \epem, \etal, \e, \Ytf, \SMHZtobbee, \mZ, \submitted, \SMHZtobbqq, \SMHZ, \W, \epemtoeeqq, \bbbar, \SMHZtobbtt, \SMHZtobbnn, \
159215 2013-02-27 03:11:47 /0012/hep-ex.0012038 420000[\psfig]; 1 missing file[ws.sty].
159216 2013-02-27 03:11:47 /0012/hep-ex.0012040 910000[\rotate].
159217 2013-02-27 03:11:25 /0012/hep-ex.0012023 920000[\abstracts]; 1 missing file[ws.sty].
159218 2013-02-27 03:11:17 /0012/hep-ex.0012025 020000[\address, \fntext].
159219 2013-02-27 03:11:10 /0012/hep-ex.0012027 1130000[\smaller].
159220 2013-02-27 03:10:25 /0012/hep-ex.0012017 5640000[\hZtobbqq, \preprint, \hZtobbtt, \epemtoqqg, \Lep, \qqbar, {mcbibliography}, \pb, \epemtoWW, \hAtobbtt, \Z, \hA, \epem, \mA, \epemtohA, \mZ, \h, \citet, \submitted, \W, \mh, \hAtobbbb, \hZ, \TeV, \epemtoZZ, \bbbar, \tanbma, \tanb, \A, \epemtohZ, \journal
159221 2013-02-27 03:09:52 /0012/hep-ex.0012003 8120000[\Anotfoot, {Authlist}, \Aref, \resizebox, \cmsnote, \includegraphics, Align, \Instfoot, {2figures}, \submitted]; 1 missing file[cmspaper.cls].
159222 2013-02-27 03:09:41 /0012/hep-ex.0012005 3130000[\smaller].
159223 2013-02-27 03:08:54 /0012/gr-qc.0012106 810000[\emline].
159224 2013-02-27 03:08:10 /0012/gr-qc.0012110 220000[\abstracts]; 1 missing file[ws.sty].
159225 2013-02-27 03:08:07 /0012/gr-qc.0012092 030000[\Qlb, \Qcb, \FRAME].
159226 2013-02-27 03:07:27 /0012/gr-qc.0012080 53100000[\PACSes, \BY, \atque, \acknowledgments, \PACSit, \from, \NAME, \TITLE, \IN, \instlist].
159227 2013-02-27 03:07:11 /0012/gr-qc.0012084 620000[\epsffile].
159228 2013-02-27 03:07:05 /0012/gr-qc.0012088 10420000[\arc, \curve].
159229 2013-02-27 03:07:00 /0012/gr-qc.0012085 360000[\@thanks, \@authoraddress, \@preprint, \@date, \@title, \@abstract].
159230 2013-02-27 03:06:55 /0012/gr-qc.0012087 310000[\epsffileline].
159231 2013-02-27 03:03:58 /0012/gr-qc.0012058 21010000[\theappendix].
159232 2013-02-27 03:03:41 /0012/gr-qc.0012059 150280000[\copyrightyear, \degreetitle, \authorizepage, \thechapter, \department, \previousdegrees, \@currentID, \signaturelines, \thesistitle].
159233 2013-02-27 03:03:19 /0012/gr-qc.0012054 120000[\abstracts]; 1 missing file[ws.sty].
159234 2013-02-27 03:02:07 /0012/gr-qc.0012043 060000[\PRD, \Journal, \abstracts, \psfrag, {psfrags}]; 1 missing file[ws.sty].
159235 2013-02-27 03:01:24 /0012/gr-qc.0012031 040000[\PRD, \Journal, \abstracts]; 1 missing file[ws.sty].
159236 2013-02-27 03:00:37 /0012/gr-qc.0012038 820000[\abstracts]; 1 missing file[ws.sty].
159237 2013-02-27 03:00:26 /0012/gr-qc.0012024 18510000[\theappendix].
159238 2013-02-27 02:59:28 /0012/gr-qc.0012027 1830000[\PACSes, \PACSit, \instlist].
159239 2013-02-27 02:59:09 /0012/gr-qc.0012014 050000[\address, \epsfbox, \pacs, \epsfxsize, \keywords].
159240 2013-02-27 02:58:56 /0012/gr-qc.0012012 050000[\PRD, \Journal, \abstracts, \PRL]; 1 missing file[ws.sty].
159241 2013-02-27 02:58:32 /0012/gr-qc.0012016 230000[\Journal, \abstracts]; 1 missing file[ws.sty].
159242 2013-02-27 02:58:27 /0012/gr-qc.0012017 040000[\epsfbox, \abstracts, \epsfxsize]; 1 missing file[ws.sty].
159243 2013-02-27 02:58:14 /0012/cs.0012010 54160000[\citeyear, \endreceived, \terms, {acks}, \blacken, \path, {bottomstuff}, \keywords, {example}, {definition}, \permission, \category, \citeN, {proof}, \newdef, \received]; 1 missing file[acmtrans2e.cls].
159244 2013-02-27 02:58:13 /0012/gr-qc.0012001 020000[\abstracts]; 1 missing file[ws.sty].
159245 2013-02-27 02:58:04 /0012/cs.0012018 270160000[\with, Align, \por, \infer, \luLine, \ruLine, {diagram}]; 1 missing file[headers.sty].
159246 2013-02-27 02:57:59 /0012/cs.0012009 6200000[\vref, \dd, {comment}, {boxedminipage}]; 1 missing file[boxedminipage.sty].
159247 2013-02-27 02:57:55 /0012/gr-qc.0012006 11110000[\PACSes, \BY, \atque, \shortauthor, \PACSit, \NAME, \TITLE, \issue, \IN, \shorttitle, \instlist].
159248 2013-02-27 02:57:03 /0012/cs.0012015 21270000[\inst, \RRresume, \titlehead, \onetom, \URRocq, \RRprojet, \RRtitle, \makeRR, \nat, \RRnote, \RRetitle, \RRNo, \und, \RRauthor, \RRtheme, \authorhead, \vars, \RRabstract, \RRdate, \zerotom, \RRmotcle, \pars, \restr, \RRkeyword]; 2 missing files[myNotatio
159249 2013-02-27 02:56:18 /0012/cs.0012001 0120000[\pstree, \Tcircle, \Tr]; 2 missing files[pst-tree.sty, pst-char.sty].
159250 2013-02-27 02:56:18 /0012/cs.0012008 15930000[\psfig]; 1 missing file[psfig].
159251 2013-02-27 02:55:16 /0012/cond-mat.0012504 410000[\address].
159252 2013-02-27 02:54:55 /0012/cond-mat.0012506 640000[\address, \pacs, \keywords]; 1 missing file[CMP209.sty].
159253 2013-02-27 02:53:56 /0012/cond-mat.0012493 1030000[\runningauthor, {frontmatter}, \runningtitle].
159254 2013-02-27 02:53:11 /0012/cond-mat.0012486 1110000[\fulltext, \epsfbox, {fullfigure}, \mib, \citet, \halftext]; 2 missing files[subeqna.sty, jpsjbs.sty].
159255 2013-02-27 02:52:54 /0012/cond-mat.0012487 060000[\epsfile]; 1 missing file[epsbox.sty].
159256 2013-02-27 02:52:53 /0012/cond-mat.0012489 050000[\pacs, \institute].
159257 2013-02-27 02:52:42 /1201/1201.3731 45510000[\xymatrixcolsep, \lsuper, \xymatrix, \lmcsheading, \keywords, Align, \address, \rsuper, \email, \subjclass, \ar, {iteMize}]; 3 missing files["main.bbl", xy.sty, LMCS.cls].
159258 2013-02-27 02:52:41 /0012/cond-mat.0012490 140000[\epsffile, \epsfxsize]; 2 missing files[subeqna.sty, jpsjbs.sty].
159259 2013-02-27 02:52:01 /0012/cond-mat.0012480 110000[\epsfbox].
159260 2013-02-27 02:51:15 /0012/cond-mat.0012451 020000[\psfigurepath].
159261 2013-02-27 02:51:14 /0012/cond-mat.0012455 550000[\citet, \epsffile, \epsfxsize]; 2 missing files[subeqna.sty, jpsjbs.sty].
159262 2013-02-27 02:51:13 /0012/cond-mat.0012454 1070000[\epsfbox, \mib, \citet, \epsfxsize]; 2 missing files[subeqna.sty, jpsjbs.sty].
159263 2013-02-27 02:50:05 /0012/cond-mat.0012434 2710000[\CITE].
159264 2013-02-27 02:49:59 /0012/cond-mat.0012437 520000[\psfig]; 1 missing file[psfig].
159265 2013-02-27 02:49:56 /0012/cond-mat.0012418 240000[\BoxedEPSF, \SetRokickiEPSFSpecial, \HideDisplacementBoxes]; 1 missing file[BoxedEPS].
159266 2013-02-27 02:49:45 /0012/cond-mat.0012408 2110000[\rotate].
159267 2013-02-27 02:49:43 /0012/cond-mat.0012410 3310000[\theappendix].
159268 2013-02-27 02:49:29 /0012/cond-mat.0012426 050000[\@affiliation, \onefigure].
159269 2013-02-27 02:49:24 /0012/cond-mat.0012428 0120000[\theappendix, \twofigures, \email, \un, \@affiliation, \citet, \onefigure, \chem, \etal].
159270 2013-02-27 02:48:46 /0012/cond-mat.0012416 1140000[\@affiliation, \onefigure].
159271 2013-02-27 02:48:00 /0012/cond-mat.0012391 5520000[\citet, \typearea].
159272 2013-02-27 02:47:18 /0012/cond-mat.0012396 1150000[\psbox, \mib, \acknowledgements]; 2 missing files[subeqna.sty, jpsjbs.sty].
159273 2013-02-27 02:46:11 /0012/cond-mat.0012367 1270000[\address, {references}]; 1 missing file[revtex4b4.cls].
159274 2013-02-27 02:45:52 /0012/cond-mat.0012376 19100000[\slabel, \kword, \abst, \inst, \recdate, {subequations}, \mib, \epsffile, \epsfxsize]; 1 missing file[jpsj_sissa.sty].
159275 2013-02-27 02:45:09 /0012/cond-mat.0012350 820000[\toctitle]; 1 missing file[physproc.sty].
159276 2013-02-27 02:44:57 /0012/cond-mat.0012351 390000[\email, \ab, \@affiliation, \upd, \onefigure, \chem, \etal].
159277 2013-02-27 02:44:38 /0012/cond-mat.0012336 1790000[\euro, \pacs, \inst, \rec, \institute, \Date].
159278 2013-02-27 02:44:24 /0012/cond-mat.0012338 410000[\oddsidemargin].
159279 2013-02-27 02:42:58 /0012/cond-mat.0012333 130000[\pacs, \email, \affiliation]; 1 missing file[revtex4b4.cls].
159280 2013-02-27 02:42:48 /0012/cond-mat.0012319 5130000[\@affiliation].
159281 2013-02-27 02:42:39 /0012/cond-mat.0012301 287210000[\+]; 4 missing files[tdmL.aux, tables.aux, bib.aux, tdm.aux].
159282 2013-02-27 02:40:21 /0012/cond-mat.0012297 310000[\psfigurepath].
159283 2013-02-27 02:39:16 /0012/cond-mat.0012287 410000[\psfrag].
159284 2013-02-27 02:38:58 /0012/cond-mat.0012292 220000[\psfig]; 1 missing file[psfig].
159285 2013-02-27 02:36:49 /0012/cond-mat.0012256 190000[\euro, \pacs, \inst, \rec, \institute, \Date].
159286 2013-02-27 02:36:46 /0012/cond-mat.0012258 1450000[\@affiliation, \onefigure].
159287 2013-02-27 02:36:05 /0012/cond-mat.0012230 21190000[\euro, \pacs, \rec, \psfig, \institute, \Date]; 1 missing file[psfig].
159288 2013-02-27 02:35:18 /0012/cond-mat.0012223 230000[\epsfbox, \abstracts, \epsfxsize].
159289 2013-02-27 02:33:51 /0012/cond-mat.0012198 280000[\twofigures, \psfrag, \@affiliation, \onefigure, \etal].
159290 2013-02-27 02:33:46 /0012/cond-mat.0012185 3120000[\algwhile, \algbegin, \alginout, {algorithm}, \algforto, \algifthenelse, \algname, {algtab}, {algtab*}, \algend, \algreturn]; 1 missing file[scrartcl.cls].
159291 2013-02-27 02:33:43 /0012/cond-mat.0012203 710000[\toctitle].
159292 2013-02-27 02:32:40 /0012/cond-mat.0012175 1010000[\marginsize].
159293 2013-02-27 02:31:20 /0012/cond-mat.0012168 110000[\theappendix].
159294 2013-02-27 02:30:57 /0012/cond-mat.0012154 130000[\runningauthor, {frontmatter}, \runningtitle].
159295 2013-02-27 02:30:56 /0012/cond-mat.0012155 1210000[\tag].
159296 2013-02-27 02:30:37 /0012/cond-mat.0012158 1420000[\includegraphics]; 1 missing file[switch.sty].
159297 2013-02-27 02:30:15 /0012/cond-mat.0012162 520000[\radical, \citen].
159298 2013-02-27 02:29:57 /0012/cond-mat.0012148 1880000[\address, \pacs, \psfig, \acknowledgments, \keywords].
159299 2013-02-27 02:29:52 /0012/cond-mat.0012146 010000[\footrulewidth].
159300 2013-02-27 02:29:09 /0012/cond-mat.0012140 290000[\twofigures, \email, \@affiliation, \onefigure, \etal].
159301 2013-02-27 02:28:36 /0012/cond-mat.0012128 450000[\draft, \address, \pacs, \prb, \prl]; 1 missing file[revtex4b4.cls].
159302 2013-02-27 02:27:49 /0012/cond-mat.0012121 820000[\emline, \bezier].
159303 2013-02-27 02:27:41 /0012/cond-mat.0012120 420000[{keywords}, \PARstart]; 1 missing file[IEEEtran.cls].
159304 2013-02-27 02:26:39 /0012/cond-mat.0012109 010000[\footrulewidth].
159305 2013-02-27 02:23:26 /0012/cond-mat.0012064 010000[\a].
159306 2013-02-27 02:22:59 /0012/cond-mat.0012053 110000[\rotate].
159307 2013-02-27 02:21:35 /0012/cond-mat.0012044 32160000[{fmffile}, \fmfrightn, \fmf, \fmfcmd, \fmfv, {fmfgraph*}, \fmfleft, \setpapersize, \fmfright, \fmfstraight].
159308 2013-02-27 02:21:28 /0012/cond-mat.0012041 080000[\twofigures, \email, \@affiliation, \onefigure, \stars].
159309 2013-02-27 02:20:55 /0012/cond-mat.0012013 26360000[\epsfig, \psfig, \epsffile, \epsfxsize, \epsfysize].
159310 2013-02-27 02:19:58 /0012/cond-mat.0012034 190000[\euro, \pacs, \inst, \rec, \institute, \Date].
159311 2013-02-27 02:17:41 /1201/1201.3733 182120000[{cor}, {prop}, \qed, \keywords, \proof, \address, \email, \subjclass, \infer, {thm}, {defi}, {lem}]; 1 missing file[lmcs.cls].
159312 2013-02-27 02:15:39 /0012/cond-mat.0012016 240000[\epsfbox, \abstracts, \rotatebox, \epsfxsize].
159313 2013-02-27 02:14:08 /0012/astro-ph.0012519 0110000[\nl, \colhead, \nodata, \tablehead, \tablebreak, {deluxetable}, Align, \startdata, \tablecaption, \tablevspace, \enddata].
159314 2013-02-27 02:13:52 /0012/astro-ph.0012540 220000[\affil, \keywords]; 1 missing file[esapub.cls].
159315 2013-02-27 02:13:42 /0012/astro-ph.0012546 2270000[\firstsection, \ls, \ifnfsstwo, \ifnfssone, \ifoldfss, \affiliation, \ns]; 1 missing file[cupconf.sty].
159316 2013-02-27 02:13:28 /0012/astro-ph.0012543 060000[\affil, \pasp, \reference, {references}, \acknowledgments]; 1 missing file[newpasp.sty].
159317 2013-02-27 02:13:24 /0012/astro-ph.0012544 240000[\psfig, \institute, \runningtitle, {opening}].
159318 2013-02-27 02:13:17 /0012/astro-ph.0012528 040000[\abstracts, \psfig]; 2 missing files[psfig.tex, ws.sty].
159319 2013-02-27 02:13:17 /0012/astro-ph.0012529 020000[\abstracts]; 1 missing file[ws.sty].
159320 2013-02-27 02:13:13 /0012/astro-ph.0012530 040000[\abstracts, \psfig]; 2 missing files[psfig.tex, ws.sty].
159321 2013-02-27 02:13:11 /0012/astro-ph.0012531 020000[\abstracts]; 1 missing file[ws.sty].
159322 2013-02-27 02:13:10 /0012/astro-ph.0012514 2510000[\theappendix].
159323 2013-02-27 02:13:08 /0012/astro-ph.0012534 020000[\psfig]; 1 missing file[psfig.tex].
159324 2013-02-27 02:13:05 /0012/astro-ph.0012533 030000[\abstracts]; 2 missing files[psfig.tex, ws.sty].
159325 2013-02-27 02:12:50 /0012/astro-ph.0012520 410000[\epsfig].
159326 2013-02-27 02:12:48 /0012/astro-ph.0012521 020000[\psfig]; 1 missing file[psfig.tex].
159327 2013-02-27 02:12:41 /0012/astro-ph.0012522 020000[\psfig]; 1 missing file[psfig.tex].
159328 2013-02-27 02:12:37 /0012/astro-ph.0012511 3990000[\kword, \abst, \epsfbox, \ltsim, \re, \epsfxsize, \gtsim]; 1 missing file[PASJ95.cls].
159329 2013-02-27 02:12:35 /0012/astro-ph.0012523 040000[\institute, \runningtitle, {opening}]; 1 missing file[psfig.tex].
159330 2013-02-27 02:12:32 /0012/astro-ph.0012524 0150000[\surname, \psfig, \institute, {opening}, {article}, \keywords, \newdisplay, \runningauthor]; 1 missing file[psfig.tex].
159331 2013-02-27 02:12:25 /0012/astro-ph.0012526 040000[\institute, {opening}, \runningtitle]; 1 missing file[psfig.tex].
159332 2013-02-27 02:12:21 /0012/astro-ph.0012527 020000[\psfig]; 1 missing file[psfig.tex].
159333 2013-02-27 02:12:01 /0012/astro-ph.0012513 020000[\toctitle]; 1 missing file[multind.sty].
159334 2013-02-27 02:11:51 /0012/astro-ph.0012515 020000[\psfig]; 1 missing file[psfig.tex].
159335 2013-02-27 02:11:41 /0012/astro-ph.0012501 10110000[\kword, \abst, \draft, \epsfbox, \re, {fv}]; 1 missing file[PASJ95.cls].
159336 2013-02-27 02:11:38 /0012/astro-ph.0012499 0170000[\affil, \apj, \pasj, \apjl, \plotfiddle, \aap, \reference, {references}, \araa, \aj, \prl, \mnras, \apjs, \plotone, \acknowledgements, \plottwo]; 1 missing file[newpasp.sty].
159337 2013-02-27 02:11:32 /0012/astro-ph.0012500 4100000[\affil, \apj, \aj, \apss, \plotfiddle, \mnras, \reference, {references}, \araa]; 1 missing file[newpasp.sty].
159338 2013-02-27 02:11:29 /0012/astro-ph.0012488 610000[\theappendix].
159339 2013-02-27 02:11:26 /0012/astro-ph.0012502 290000[\kword, \abst, \draft, \epsfbox, \re, {fv}]; 1 missing file[PASJ95.cls].
159340 2013-02-27 02:11:10 /0012/astro-ph.0012507 0110000[\affil, \apj, \aj, \aap, \acknowledgments, \keywords, \mnras, \reference, \arcsec, {references}]; 1 missing file[newpasp.sty].
159341 2013-02-27 02:11:08 /0012/astro-ph.0012489 360000[\toctitle, \inst, \titlerunning, \institute, \authorrunning]; 1 missing file[eso.sty].
159342 2013-02-27 02:11:05 /0012/astro-ph.0012490 670000[\affil, \citep, \correspondence, \firstpage, \citet, {acknowledgements}, \pubyear]; 1 missing file[icrc.cls].
159343 2013-02-27 02:10:43 /0012/astro-ph.0012495 2120000[\affil, \apj, \apjl, \aap, \mnras, \plotone, \reference, \pasp, {references}, \acknowledgements]; 1 missing file[newpasp.sty].
159344 2013-02-27 02:10:39 /0012/astro-ph.0012442 1820000[\epsfbox, \epsfxsize].
159345 2013-02-27 02:10:31 /0012/astro-ph.0012478 2140000[\affil, \mnras, \apj, \aj, \apjl, \acknowledgements, \plotfiddle]; 1 missing file[newpasp.sty].
159346 2013-02-27 02:10:02 /0012/astro-ph.0012483 0120000[\affil, \apj, \apjl, \aap, \acknowledgments, \apjs, \mnras, \plotone, \reference, {references}, \araa]; 1 missing file[newpasp.sty].
159347 2013-02-27 02:09:48 /0012/astro-ph.0012485 690000[\topline, \submitted].
159348 2013-02-27 02:09:31 /0012/astro-ph.0012486 0130000[\affil, \reference, {references}, \tableline, \acknowledgements, \plotfiddle]; 1 missing file[newpasp.sty].
159349 2013-02-27 02:09:15 /0012/astro-ph.0012468 160000[\sun, \affil, \reference, \plotone, {references}]; 1 missing file[newpasp.sty].
159350 2013-02-27 02:09:05 /0012/astro-ph.0012470 050000[\affil, \reference, {references}, \earth]; 1 missing file[newpasp.sty].
159351 2013-02-27 02:09:02 /0012/astro-ph.0012456 1530000[\theappendix, \afterpage]; 1 missing file[afterpage.sty].
159352 2013-02-27 02:08:47 /0012/astro-ph.0012473 110000[\submitted].
159353 2013-02-27 02:08:41 /0012/astro-ph.0012475 1780000[\affil, \reference, \plotone, {references}]; 1 missing file[newpasp.sty].
159354 2013-02-27 02:08:24 /0012/astro-ph.0012457 090000[\psfig]; 1 missing file[psfig.tex].
159355 2013-02-27 02:08:10 /0012/astro-ph.0012460 230000[\references, \ga, \la].
159356 2013-02-27 02:07:54 /0012/astro-ph.0012461 490000[\affil, \mnras, \apj, \reference, \arcsec, {references}, \plotfiddle, \aap]; 1 missing file[newpasp.sty].
159357 2013-02-27 02:07:25 /0012/astro-ph.0012467 680000[\affil, \mnras, \apj, \aj, \reference, {references}, \acknowledgements]; 1 missing file[newpasp.sty].
159358 2013-02-27 02:07:13 /0012/astro-ph.0012452 140000[\psfig]; 1 missing file[psfig].
159359 2013-02-27 02:07:09 /0012/astro-ph.0012451 0110000[\affil, \tablenotetext, \tableline, \acknowledgments, \plotone, \reference, \tablenotemark, {references}]; 1 missing file[newpasp.sty].
159360 2013-02-27 02:07:09 /0012/astro-ph.0012453 0140000[\affil, \apj, \aj, \plotfiddle, \ga, \aap, \la, \mnras, \pasp, \reference, {references}, \araa, \acknowledgements]; 1 missing file[newpasp.sty].
159361 2013-02-27 02:07:04 /0012/astro-ph.0012455 1490000[\affil, \articletitle, \kluwerbib, \email, {chapthebibliography}, \sphline]; 1 missing file[KapProc.cls].
159362 2013-02-27 02:07:01 /0012/astro-ph.0012454 260000[\affil, \reference, \plotone, {references}, \plotfiddle]; 1 missing file[newpasp.sty].
159363 2013-02-27 02:06:39 /0012/astro-ph.0012444 310000[\references].
159364 2013-02-27 02:06:36 /0012/astro-ph.0012443 0120000[\affil, \aaps, \aap, \micron, \plotone, \reference, {references}, \plottwo]; 1 missing file[newpasp.sty].
159365 2013-02-27 02:06:33 /0012/astro-ph.0012433 1210000[\theappendix].
159366 2013-02-27 02:05:38 /0012/astro-ph.0012418 150000[\inst, \titlerunning, \institute, \authorrunning]; 1 missing file[eso.sty].
159367 2013-02-27 02:05:38 /0012/astro-ph.0012422 530000[\psfull, \psfig]; 1 missing file[psfig].
159368 2013-02-27 02:05:27 /0012/astro-ph.0012407 3950000[\toctitle, \titlerunning, \institute, \authorrunning]; 1 missing file[eso.sty].
159369 2013-02-27 02:05:21 /0012/astro-ph.0012423 080000[\subtitle, \surname, \email, \runningauthor, \institute, {opening}, {article}, \keywords].
159370 2013-02-27 02:05:19 /0012/astro-ph.0012424 1100000[\makeheadings, \contvolum, \shortauthor, {received}, \contnumber, \address, \shorttitle, \contyear, \contpages, {acknowledgements}]; 1 missing file[cpp2e.cls].
159371 2013-02-27 02:05:11 /0012/astro-ph.0012409 010000[\toctitle].
159372 2013-02-27 02:05:03 /0012/astro-ph.0012412 210000[\toctitle].
159373 2013-02-27 02:05:03 /0012/astro-ph.0012416 550000[\toctitle, \titlerunning, \institute, \authorrunning]; 1 missing file[eso.sty].
159374 2013-02-27 02:04:54 /0012/astro-ph.0012398 070000[\abovecaptionskip, \authorinfo, \skiplinehalf, \acknowledgments, \keywords].
159375 2013-02-27 02:04:53 /0012/astro-ph.0012399 630000[\psfull, \psfig]; 1 missing file[psfig].
159376 2013-02-27 02:04:51 /0012/astro-ph.0012397 160000[\a, \pcite, \scite]; 1 missing file[general_cite.sty].
159377 2013-02-27 02:04:46 /0012/astro-ph.0012402 1150000[\citeauthoryear, \opencite, \surname, {ao}, \psfig, \institute, \runningtitle, {opening}, {article}, \volume, \runningauthor, \fdg, \inlinecite, {acknowledgements}]; 1 missing file[spackap.sty].
159378 2013-02-27 02:04:40 /0012/astro-ph.0012394 2910000[\toctitle].
159379 2013-02-27 02:04:40 /0012/astro-ph.0012404 110000[\submitted].
159380 2013-02-27 02:04:28 /0012/astro-ph.0012406 090000[\affil, \apj, \reference, \plotone, {references}, \apjl]; 1 missing file[newpasp.sty].
159381 2013-02-27 02:04:24 /0012/astro-ph.0012381 1440000[\submitted].
159382 2013-02-27 02:04:24 /0012/astro-ph.0012387 050000[\affil, \reference, {references}, \plotfiddle]; 1 missing file[newpasp.sty].
159383 2013-02-27 02:03:58 /0012/astro-ph.0012356 2120000[\psfig]; 1 missing file[psfig].
159384 2013-02-27 02:03:48 /0012/astro-ph.0012382 8300000[{moriondbib}, \acknowledgements, \heading, {moriondabstract}].
159385 2013-02-27 02:03:35 /0012/astro-ph.0012385 010000[\epsfig].
159386 2013-02-27 02:03:20 /0012/astro-ph.0012358 0210000[\psfig]; 1 missing file[psfig].
159387 2013-02-27 02:03:11 /0012/astro-ph.0012373 020000[\affil]; 1 missing file[newpasp.sty].
159388 2013-02-27 02:03:11 /0012/astro-ph.0012374 2160000[\affil, \apj, \aj, \tableline, \ga, \nat, \aap, \acknowledgments, \mnras, \plotone, \reference, \arcsec, {references}]; 1 missing file[newpasp.sty].
159389 2013-02-27 02:03:07 /0012/astro-ph.0012357 060000[\toctitle, \inst, \titlerunning, \institute, \authorrunning]; 1 missing file[eso.sty].
159390 2013-02-27 02:03:01 /0012/astro-ph.0012362 0100000[\epsfig, \farcs].
159391 2013-02-27 02:02:56 /0012/astro-ph.0012364 320000[\psfig]; 1 missing file[psfig].
159392 2013-02-27 02:02:54 /0012/astro-ph.0012361 0100000[\affil, \aj, \plotfiddle, \micron, \reference, {references}, \araa, \acknowledgements, \plottwo]; 1 missing file[newpasp.sty].
159393 2013-02-27 02:02:38 /0012/astro-ph.0012348 0120000[\affil, \apj, \aaps, \plotfiddle, \aap, \acknowledgments, \mnras, \reference, \arcsec, {references}]; 1 missing file[newpasp.sty].
159394 2013-02-27 02:02:35 /0012/astro-ph.0012349 0220000[\arcmin, \affil, \sun, \reference, \plotone, \farcm, \arcsec, {references}, \farcs, \acknowledgements, \plottwo]; 1 missing file[newpasp.sty].
159395 2013-02-27 02:02:34 /0012/astro-ph.0012353 020000[\toctitle]; 1 missing file[multind.sty].
159396 2013-02-27 02:02:32 /0012/astro-ph.0012352 0140000[\affil, \apj, \aj, \ga, \plotfiddle, \aap, \apjs, \reference, \pasp, {references}, \acknowledgements]; 1 missing file[paspiau199.sty].
159397 2013-02-27 02:02:26 /0012/astro-ph.0012324 41160000[\theappendix, \epsfbox, \epsfxsize]; 1 missing file[onecolfloat.sty].
159398 2013-02-27 02:02:25 /0012/astro-ph.0012355 0130000[\affil, \apj, \aj, \aaps, \ga, \la, \apjs, \mnras, \pasp, \reference, {references}, \acknowledgements]; 1 missing file[newpasp.sty].
159399 2013-02-27 02:02:11 /0012/astro-ph.0012338 0130000[\PLB, \PRD, \Journal, \epsfbox, \abstracts, \PRL]; 1 missing file[ws.sty].
159400 2013-02-27 02:02:03 /0012/astro-ph.0012342 690000[\kword, \abst, \psbox, \re]; 1 missing file[PASJ95.cls].
<<< >>>

[0] [200] [400] [600] [800] [1000] [1200] [1400] [1600] [1800] [2000] [2200] [2400] [2600] [2800] [3000] [3200] [3400] [3600] [3800] [4000] [4200] [4400] [4600] [4800] [5000] [5200] [5400] [5600] [5800] [6000] [6200] [6400] [6600] [6800] [7000] [7200] [7400] [7600] [7800] [8000] [8200] [8400] [8600] [8800] [9000] [9200] [9400] [9600] [9800] [10000] [10200] [10400] [10600] [10800] [11000] [11200] [11400] [11600] [11800] [12000] [12200] [12400] [12600] [12800] [13000] [13200] [13400] [13600] [13800] [14000] [14200] [14400] [14600] [14800] [15000] [15200] [15400] [15600] [15800] [16000] [16200] [16400] [16600] [16800] [17000] [17200] [17400] [17600] [17800] [18000] [18200] [18400] [18600] [18800] [19000] [19200] [19400] [19600] [19800] [20000] [20200] [20400] [20600] [20800] [21000] [21200] [21400] [21600] [21800] [22000] [22200] [22400] [22600] [22800] [23000] [23200] [23400] [23600] [23800] [24000] [24200] [24400] [24600] [24800] [25000] [25200] [25400] [25600] [25800] [26000] [26200] [26400] [26600] [26800] [27000] [27200] [27400] [27600] [27800] [28000] [28200] [28400] [28600] [28800] [29000] [29200] [29400] [29600] [29800] [30000] [30200] [30400] [30600] [30800] [31000] [31200] [31400] [31600] [31800] [32000] [32200] [32400] [32600] [32800] [33000] [33200] [33400] [33600] [33800] [34000] [34200] [34400] [34600] [34800] [35000] [35200] [35400] [35600] [35800] [36000] [36200] [36400] [36600] [36800] [37000] [37200] [37400] [37600] [37800] [38000] [38200] [38400] [38600] [38800] [39000] [39200] [39400] [39600] [39800] [40000] [40200] [40400] [40600] [40800] [41000] [41200] [41400] [41600] [41800] [42000] [42200] [42400] [42600] [42800] [43000] [43200] [43400] [43600] [43800] [44000] [44200] [44400] [44600] [44800] [45000] [45200] [45400] [45600] [45800] [46000] [46200] [46400] [46600] [46800] [47000] [47200] [47400] [47600] [47800] [48000] [48200] [48400] [48600] [48800] [49000] [49200] [49400] [49600] [49800] [50000] [50200] [50400] [50600] [50800] [51000] [51200] [51400] [51600] [51800] [52000] [52200] [52400] [52600] [52800] [53000] [53200] [53400] [53600] [53800] [54000] [54200] [54400] [54600] [54800] [55000] [55200] [55400] [55600] [55800] [56000] [56200] [56400] [56600] [56800] [57000] [57200] [57400] [57600] [57800] [58000] [58200] [58400] [58600] [58800] [59000] [59200] [59400] [59600] [59800] [60000] [60200] [60400] [60600] [60800] [61000] [61200] [61400] [61600] [61800] [62000] [62200] [62400] [62600] [62800] [63000] [63200] [63400] [63600] [63800] [64000] [64200] [64400] [64600] [64800] [65000] [65200] [65400] [65600] [65800] [66000] [66200] [66400] [66600] [66800] [67000] [67200] [67400] [67600] [67800] [68000] [68200] [68400] [68600] [68800] [69000] [69200] [69400] [69600] [69800] [70000] [70200] [70400] [70600] [70800] [71000] [71200] [71400] [71600] [71800] [72000] [72200] [72400] [72600] [72800] [73000] [73200] [73400] [73600] [73800] [74000] [74200] [74400] [74600] [74800] [75000] [75200] [75400] [75600] [75800] [76000] [76200] [76400] [76600] [76800] [77000] [77200] [77400] [77600] [77800] [78000] [78200] [78400] [78600] [78800] [79000] [79200] [79400] [79600] [79800] [80000] [80200] [80400] [80600] [80800] [81000] [81200] [81400] [81600] [81800] [82000] [82200] [82400] [82600] [82800] [83000] [83200] [83400] [83600] [83800] [84000] [84200] [84400] [84600] [84800] [85000] [85200] [85400] [85600] [85800] [86000] [86200] [86400] [86600] [86800] [87000] [87200] [87400] [87600] [87800] [88000] [88200] [88400] [88600] [88800] [89000] [89200] [89400] [89600] [89800] [90000] [90200] [90400] [90600] [90800] [91000] [91200] [91400] [91600] [91800] [92000] [92200] [92400] [92600] [92800] [93000] [93200] [93400] [93600] [93800] [94000] [94200] [94400] [94600] [94800] [95000] [95200] [95400] [95600] [95800] [96000] [96200] [96400] [96600] [96800] [97000] [97200] [97400] [97600] [97800] [98000] [98200] [98400] [98600] [98800] [99000] [99200] [99400] [99600] [99800] [100000] [100200] [100400] [100600] [100800] [101000] [101200] [101400] [101600] [101800] [102000] [102200] [102400] [102600] [102800] [103000] [103200] [103400] [103600] [103800] [104000] [104200] [104400] [104600] [104800] [105000] [105200] [105400] [105600] [105800] [106000] [106200] [106400] [106600] [106800] [107000] [107200] [107400] [107600] [107800] [108000] [108200] [108400] [108600] [108800] [109000] [109200] [109400] [109600] [109800] [110000] [110200] [110400] [110600] [110800] [111000] [111200] [111400] [111600] [111800] [112000] [112200] [112400] [112600] [112800] [113000] [113200] [113400] [113600] [113800] [114000] [114200] [114400] [114600] [114800] [115000] [115200] [115400] [115600] [115800] [116000] [116200] [116400] [116600] [116800] [117000] [117200] [117400] [117600] [117800] [118000] [118200] [118400] [118600] [118800] [119000] [119200] [119400] [119600] [119800] [120000] [120200] [120400] [120600] [120800] [121000] [121200] [121400] [121600] [121800] [122000] [122200] [122400] [122600] [122800] [123000] [123200] [123400] [123600] [123800] [124000] [124200] [124400] [124600] [124800] [125000] [125200] [125400] [125600] [125800] [126000] [126200] [126400] [126600] [126800] [127000] [127200] [127400] [127600] [127800] [128000] [128200] [128400] [128600] [128800] [129000] [129200] [129400] [129600] [129800] [130000] [130200] [130400] [130600] [130800] [131000] [131200] [131400] [131600] [131800] [132000] [132200] [132400] [132600] [132800] [133000] [133200] [133400] [133600] [133800] [134000] [134200] [134400] [134600] [134800] [135000] [135200] [135400] [135600] [135800] [136000] [136200] [136400] [136600] [136800] [137000] [137200] [137400] [137600] [137800] [138000] [138200] [138400] [138600] [138800] [139000] [139200] [139400] [139600] [139800] [140000] [140200] [140400] [140600] [140800] [141000] [141200] [141400] [141600] [141800] [142000] [142200] [142400] [142600] [142800] [143000] [143200] [143400] [143600] [143800] [144000] [144200] [144400] [144600] [144800] [145000] [145200] [145400] [145600] [145800] [146000] [146200] [146400] [146600] [146800] [147000] [147200] [147400] [147600] [147800] [148000] [148200] [148400] [148600] [148800] [149000] [149200] [149400] [149600] [149800] [150000] [150200] [150400] [150600] [150800] [151000] [151200] [151400] [151600] [151800] [152000] [152200] [152400] [152600] [152800] [153000] [153200] [153400] [153600] [153800] [154000] [154200] [154400] [154600] [154800] [155000] [155200] [155400] [155600] [155800] [156000] [156200] [156400] [156600] [156800] [157000] [157200] [157400] [157600] [157800] [158000] [158200] [158400] [158600] [158800] [159000] [159200] [159400] [159600] [159800] [160000] [160200] [160400] [160600] [160800] [161000] [161200] [161400] [161600] [161800] [162000] [162200] [162400] [162600] [162800] [163000] [163200] [163400] [163600] [163800] [164000] [164200] [164400] [164600]
 
  The service has been written by
Heinrich Stamerjohanns